BRNCO56 KRDU-KGAI
Flight info
| Callsign | BRNCO56 |
|---|---|
| Flight time | 0h 55m |
| Altitude | 29000 |
| Route | OXFRD5 OXFRD HARVY LORAA TRSTN4 |
| Aircraft | C130/M-SDE2E3FGHRWXY/LB1 |
Departure
| Time | 2026-05-04 00:27 |
|---|---|
| Airport | Raleigh-Durham International Airport (KRDU) |
Arrival
| Time | 2026-05-04 01:22 |
|---|---|
| Airport | Montgomery County Airpark (KGAI) |
| Time | Latitude | Longitude | Altitude | Speed | Heading |
|---|---|---|---|---|---|
| 2026-05-03 23:51 | 35.86805 | -78.77710 | 421 ft | 0 kts | 135° |
| 2026-05-04 00:16 | 35.86803 | -78.77707 | 433 ft | 1 kts | 135° |
| 2026-05-04 00:17 | 35.86800 | -78.77704 | 433 ft | 1 kts | 131° |
| 2026-05-04 00:17 | 35.86791 | -78.77685 | 423 ft | 2 kts | 114° |
| 2026-05-04 00:17 | 35.86789 | -78.77680 | 428 ft | 0 kts | 114° |
| 2026-05-04 00:18 | 35.86784 | -78.77666 | 433 ft | 10 kts | 114° |
| 2026-05-04 00:18 | 35.86776 | -78.77612 | 428 ft | 6 kts | 76° |
| 2026-05-04 00:18 | 35.86794 | -78.77581 | 422 ft | 4 kts | 46° |
| 2026-05-04 00:19 | 35.86811 | -78.77558 | 433 ft | 3 kts | 46° |
| 2026-05-04 00:19 | 35.86834 | -78.77529 | 423 ft | 6 kts | 46° |
| 2026-05-04 00:19 | 35.86879 | -78.77509 | 433 ft | 9 kts | 321° |
| 2026-05-04 00:19 | 35.86943 | -78.77590 | 424 ft | 20 kts | 316° |
| 2026-05-04 00:20 | 35.87026 | -78.77686 | 423 ft | 15 kts | 316° |
| 2026-05-04 00:20 | 35.87122 | -78.77798 | 431 ft | 32 kts | 316° |
| 2026-05-04 00:20 | 35.87248 | -78.77953 | 428 ft | 25 kts | 314° |
| 2026-05-04 00:20 | 35.87342 | -78.78050 | 422 ft | 13 kts | 345° |
| 2026-05-04 00:21 | 35.87416 | -78.78060 | 424 ft | 13 kts | 356° |
| 2026-05-04 00:21 | 35.87501 | -78.78121 | 421 ft | 16 kts | 315° |
| 2026-05-04 00:21 | 35.87579 | -78.78217 | 430 ft | 20 kts | 314° |
| 2026-05-04 00:21 | 35.87655 | -78.78308 | 430 ft | 12 kts | 315° |
| 2026-05-04 00:22 | 35.87715 | -78.78366 | 433 ft | 9 kts | 3° |
| 2026-05-04 00:22 | 35.87781 | -78.78301 | 431 ft | 11 kts | 45° |
| 2026-05-04 00:22 | 35.87831 | -78.78239 | 427 ft | 11 kts | 45° |
| 2026-05-04 00:22 | 35.87870 | -78.78190 | 421 ft | 7 kts | 46° |
| 2026-05-04 00:23 | 35.87924 | -78.78122 | 421 ft | 11 kts | 44° |
| 2026-05-04 00:23 | 35.87963 | -78.78073 | 429 ft | 5 kts | 54° |
| 2026-05-04 00:23 | 35.87970 | -78.78051 | 423 ft | 1 kts | 77° |
| 2026-05-04 00:23 | 35.87971 | -78.78050 | 419 ft | 0 kts | 77° |
| 2026-05-04 00:25 | 35.87971 | -78.78046 | 433 ft | 3 kts | 81° |
| 2026-05-04 00:25 | 35.87947 | -78.77989 | 429 ft | 6 kts | 132° |
| 2026-05-04 00:26 | 35.87903 | -78.77966 | 435 ft | 10 kts | 196° |
| 2026-05-04 00:26 | 35.87870 | -78.77998 | 422 ft | 31 kts | 223° |
| 2026-05-04 00:26 | 35.87419 | -78.78556 | 441 ft | 140 kts | 225° |
| 2026-05-04 00:26 | 35.86648 | -78.79518 | 847 ft | 167 kts | 225° |
| 2026-05-04 00:27 | 35.85801 | -78.80533 | 1610 ft | 169 kts | 224° |
| 2026-05-04 00:27 | 35.84924 | -78.81537 | 2305 ft | 179 kts | 222° |
| 2026-05-04 00:27 | 35.83938 | -78.82635 | 2767 ft | 196 kts | 220° |
| 2026-05-04 00:27 | 35.82699 | -78.83337 | 3378 ft | 202 kts | 180° |
| 2026-05-04 00:28 | 35.81366 | -78.82830 | 4000 ft | 210 kts | 140° |
| 2026-05-04 00:28 | 35.80583 | -78.81282 | 4648 ft | 225 kts | 104° |
| 2026-05-04 00:28 | 35.80635 | -78.79291 | 5345 ft | 241 kts | 84° |
| 2026-05-04 00:28 | 35.80963 | -78.77206 | 5896 ft | 258 kts | 82° |
| 2026-05-04 00:29 | 35.81345 | -78.74952 | 6008 ft | 288 kts | 75° |
| 2026-05-04 00:29 | 35.82391 | -78.72749 | 6020 ft | 313 kts | 45° |
| 2026-05-04 00:29 | 35.84213 | -78.71198 | 6011 ft | 325 kts | 24° |
| 2026-05-04 00:29 | 35.86366 | -78.70264 | 6004 ft | 332 kts | 12° |
| 2026-05-04 00:30 | 35.88649 | -78.69691 | 6005 ft | 337 kts | 8° |
| 2026-05-04 00:30 | 35.90972 | -78.69202 | 6037 ft | 338 kts | 7° |
| 2026-05-04 00:30 | 35.93124 | -78.68779 | 7346 ft | 301 kts | 6° |
| 2026-05-04 00:30 | 35.95135 | -78.68402 | 8400 ft | 287 kts | 6° |
| 2026-05-04 00:31 | 35.97099 | -78.68041 | 9259 ft | 283 kts | 5° |
| 2026-05-04 00:31 | 35.99018 | -78.67693 | 10017 ft | 284 kts | 5° |
| 2026-05-04 00:31 | 36.00969 | -78.67343 | 10756 ft | 283 kts | 5° |
| 2026-05-04 00:31 | 36.02917 | -78.67003 | 11495 ft | 282 kts | 5° |
| 2026-05-04 00:32 | 36.04852 | -78.66651 | 12224 ft | 280 kts | 6° |
| 2026-05-04 00:32 | 36.06773 | -78.66295 | 12958 ft | 278 kts | 5° |
| 2026-05-04 00:32 | 36.08684 | -78.65945 | 13646 ft | 278 kts | 5° |
| 2026-05-04 00:32 | 36.10595 | -78.65600 | 14336 ft | 279 kts | 5° |
| 2026-05-04 00:33 | 36.12516 | -78.65255 | 15020 ft | 278 kts | 6° |
| 2026-05-04 00:33 | 36.16298 | -78.64581 | 16172 ft | 282 kts | 5° |
| 2026-05-04 00:33 | 36.18270 | -78.64238 | 16526 ft | 290 kts | 5° |
| 2026-05-04 00:34 | 36.20274 | -78.63885 | 16842 ft | 293 kts | 5° |
| 2026-05-04 00:34 | 36.22331 | -78.63532 | 17184 ft | 301 kts | 5° |
| 2026-05-04 00:34 | 36.24418 | -78.63143 | 17541 ft | 305 kts | 6° |
| 2026-05-04 00:34 | 36.26514 | -78.62754 | 17905 ft | 307 kts | 6° |
| 2026-05-04 00:35 | 36.28605 | -78.62370 | 18264 ft | 309 kts | 5° |
| 2026-05-04 00:35 | 36.30737 | -78.61982 | 18634 ft | 311 kts | 5° |
| 2026-05-04 00:35 | 36.32885 | -78.61593 | 19002 ft | 312 kts | 5° |
| 2026-05-04 00:35 | 36.35036 | -78.61173 | 19365 ft | 314 kts | 8° |
| 2026-05-04 00:36 | 36.37173 | -78.60521 | 19731 ft | 317 kts | 12° |
| 2026-05-04 00:36 | 36.39294 | -78.59777 | 20091 ft | 318 kts | 12° |
| 2026-05-04 00:36 | 36.41418 | -78.59023 | 20449 ft | 318 kts | 12° |
| 2026-05-04 00:36 | 36.43543 | -78.58268 | 20797 ft | 319 kts | 12° |
| 2026-05-04 00:37 | 36.45664 | -78.57511 | 21019 ft | 323 kts | 12° |
| 2026-05-04 00:37 | 36.47841 | -78.56735 | 21246 ft | 327 kts | 12° |
| 2026-05-04 00:37 | 36.50036 | -78.55950 | 21483 ft | 330 kts | 12° |
| 2026-05-04 00:37 | 36.52246 | -78.55160 | 21727 ft | 331 kts | 12° |
| 2026-05-04 00:38 | 36.54468 | -78.54367 | 21966 ft | 332 kts | 12° |
| 2026-05-04 00:38 | 36.56692 | -78.53567 | 22199 ft | 333 kts | 12° |
| 2026-05-04 00:38 | 36.58912 | -78.52772 | 22436 ft | 333 kts | 11° |
| 2026-05-04 00:38 | 36.61137 | -78.51973 | 22668 ft | 334 kts | 12° |
| 2026-05-04 00:39 | 36.63375 | -78.51168 | 22895 ft | 335 kts | 11° |
| 2026-05-04 00:39 | 36.65583 | -78.50374 | 23127 ft | 335 kts | 11° |
| 2026-05-04 00:39 | 36.67820 | -78.49570 | 23352 ft | 336 kts | 11° |
| 2026-05-04 00:39 | 36.70065 | -78.48763 | 23575 ft | 336 kts | 11° |
| 2026-05-04 00:40 | 36.72310 | -78.47938 | 23790 ft | 338 kts | 13° |
| 2026-05-04 00:40 | 36.74496 | -78.46820 | 24011 ft | 342 kts | 21° |
| 2026-05-04 00:40 | 36.76585 | -78.45391 | 24230 ft | 345 kts | 27° |
| 2026-05-04 00:40 | 36.78620 | -78.43809 | 24446 ft | 345 kts | 28° |
| 2026-05-04 00:41 | 36.80619 | -78.42218 | 24644 ft | 346 kts | 28° |
| 2026-05-04 00:41 | 36.82639 | -78.40595 | 24847 ft | 346 kts | 28° |
| 2026-05-04 00:41 | 36.84666 | -78.38960 | 25052 ft | 347 kts | 28° |
| 2026-05-04 00:41 | 36.86691 | -78.37324 | 25248 ft | 347 kts | 28° |
| 2026-05-04 00:42 | 36.88721 | -78.35678 | 25448 ft | 348 kts | 28° |
| 2026-05-04 00:42 | 36.90751 | -78.34033 | 25631 ft | 348 kts | 28° |
| 2026-05-04 00:42 | 36.92781 | -78.32390 | 25831 ft | 348 kts | 28° |
| 2026-05-04 00:42 | 36.94815 | -78.30739 | 26018 ft | 349 kts | 28° |
| 2026-05-04 00:43 | 36.96824 | -78.29107 | 26203 ft | 349 kts | 28° |
| 2026-05-04 00:43 | 36.98864 | -78.27448 | 26387 ft | 350 kts | 28° |
| 2026-05-04 00:43 | 37.00902 | -78.25788 | 26563 ft | 350 kts | 28° |
| 2026-05-04 00:43 | 37.02946 | -78.24122 | 26733 ft | 351 kts | 28° |
| 2026-05-04 00:44 | 37.04991 | -78.22456 | 26912 ft | 351 kts | 28° |
| 2026-05-04 00:44 | 37.07037 | -78.20787 | 27080 ft | 351 kts | 28° |
| 2026-05-04 00:44 | 37.09084 | -78.19116 | 27248 ft | 352 kts | 28° |
| 2026-05-04 00:44 | 37.11136 | -78.17440 | 27409 ft | 352 kts | 28° |
| 2026-05-04 00:45 | 37.13164 | -78.15783 | 27571 ft | 353 kts | 28° |
| 2026-05-04 00:45 | 37.15215 | -78.14104 | 27733 ft | 353 kts | 28° |
| 2026-05-04 00:45 | 37.17274 | -78.12420 | 27893 ft | 353 kts | 28° |
| 2026-05-04 00:45 | 37.19330 | -78.10737 | 28040 ft | 354 kts | 28° |
| 2026-05-04 00:46 | 37.21395 | -78.09045 | 28192 ft | 354 kts | 28° |
| 2026-05-04 00:46 | 37.23445 | -78.07364 | 28340 ft | 355 kts | 28° |
| 2026-05-04 00:46 | 37.25502 | -78.05675 | 28486 ft | 355 kts | 28° |
| 2026-05-04 00:46 | 37.27569 | -78.03976 | 28632 ft | 355 kts | 28° |
| 2026-05-04 00:47 | 37.29640 | -78.02274 | 28766 ft | 356 kts | 28° |
| 2026-05-04 00:47 | 37.31683 | -78.00595 | 28907 ft | 356 kts | 28° |
| 2026-05-04 00:47 | 37.33798 | -77.98964 | 28943 ft | 356 kts | 20° |
| 2026-05-04 00:47 | 37.36115 | -77.98006 | 28946 ft | 348 kts | 2° |
| 2026-05-04 00:48 | 37.38496 | -77.97901 | 28940 ft | 339 kts | 346° |
| 2026-05-04 00:48 | 37.43251 | -77.98142 | 28945 ft | 356 kts | 4° |
| 2026-05-04 00:48 | 37.45652 | -77.97212 | 28947 ft | 368 kts | 19° |
| 2026-05-04 00:49 | 37.47834 | -77.95462 | 28946 ft | 377 kts | 35° |
| 2026-05-04 00:49 | 37.51793 | -77.91144 | 28946 ft | 379 kts | 32° |
| 2026-05-04 00:50 | 37.56277 | -77.87726 | 28945 ft | 375 kts | 20° |
| 2026-05-04 00:50 | 37.60992 | -77.84947 | 28946 ft | 376 kts | 19° |
| 2026-05-04 00:51 | 37.65765 | -77.82220 | 28947 ft | 377 kts | 18° |
| 2026-05-04 00:51 | 37.70573 | -77.79564 | 28948 ft | 378 kts | 18° |
| 2026-05-04 00:52 | 37.75358 | -77.76921 | 28966 ft | 378 kts | 18° |
| 2026-05-04 00:52 | 37.80237 | -77.74634 | 28958 ft | 370 kts | 5° |
| 2026-05-04 00:53 | 37.85260 | -77.74312 | 28971 ft | 358 kts | 348° |
| 2026-05-04 00:53 | 37.90209 | -77.74860 | 28968 ft | 357 kts | 347° |
| 2026-05-04 00:54 | 37.95095 | -77.75511 | 28962 ft | 356 kts | 352° |
| 2026-05-04 00:54 | 37.99923 | -77.76174 | 29011 ft | 346 kts | 353° |
| 2026-05-04 00:55 | 38.04709 | -77.76838 | 29025 ft | 347 kts | 353° |
| 2026-05-04 00:55 | 38.07145 | -77.77263 | 28622 ft | 358 kts | 348° |
| 2026-05-04 00:55 | 38.09583 | -77.78009 | 28260 ft | 365 kts | 343° |
| 2026-05-04 00:55 | 38.11968 | -77.78971 | 27896 ft | 353 kts | 341° |
| 2026-05-04 00:56 | 38.14277 | -77.79972 | 27198 ft | 360 kts | 341° |
| 2026-05-04 00:56 | 38.16635 | -77.81016 | 25858 ft | 365 kts | 340° |
| 2026-05-04 00:56 | 38.19078 | -77.82113 | 24186 ft | 379 kts | 340° |
| 2026-05-04 00:56 | 38.21531 | -77.83222 | 23087 ft | 370 kts | 340° |
| 2026-05-04 00:57 | 38.23929 | -77.84308 | 21915 ft | 363 kts | 340° |
| 2026-05-04 00:57 | 38.26277 | -77.85374 | 20692 ft | 357 kts | 340° |
| 2026-05-04 00:57 | 38.28609 | -77.86438 | 19391 ft | 354 kts | 340° |
| 2026-05-04 00:57 | 38.30921 | -77.87493 | 18139 ft | 359 kts | 340° |
| 2026-05-04 00:58 | 38.33297 | -77.88576 | 16856 ft | 362 kts | 340° |
| 2026-05-04 00:58 | 38.35603 | -77.89625 | 15633 ft | 353 kts | 340° |
| 2026-05-04 00:58 | 38.37895 | -77.90673 | 14400 ft | 346 kts | 340° |
| 2026-05-04 00:58 | 38.40139 | -77.91698 | 13278 ft | 340 kts | 340° |
| 2026-05-04 00:59 | 38.42355 | -77.92709 | 13021 ft | 340 kts | 340° |
| 2026-05-04 00:59 | 38.44577 | -77.93727 | 12971 ft | 341 kts | 340° |
| 2026-05-04 00:59 | 38.46816 | -77.94751 | 12973 ft | 341 kts | 340° |
| 2026-05-04 00:59 | 38.49049 | -77.95774 | 12980 ft | 342 kts | 340° |
| 2026-05-04 01:00 | 38.51286 | -77.96799 | 12981 ft | 342 kts | 340° |
| 2026-05-04 01:00 | 38.53495 | -77.97813 | 12981 ft | 342 kts | 340° |
| 2026-05-04 01:00 | 38.55730 | -77.98839 | 12980 ft | 342 kts | 340° |
| 2026-05-04 01:00 | 38.57966 | -77.99865 | 12980 ft | 342 kts | 340° |
| 2026-05-04 01:01 | 38.60205 | -78.00895 | 12973 ft | 341 kts | 340° |
| 2026-05-04 01:01 | 38.62435 | -78.01920 | 12971 ft | 341 kts | 340° |
| 2026-05-04 01:01 | 38.64669 | -78.02950 | 12972 ft | 342 kts | 340° |
| 2026-05-04 01:01 | 38.66905 | -78.03979 | 12972 ft | 342 kts | 340° |
| 2026-05-04 01:02 | 38.69141 | -78.05007 | 12972 ft | 342 kts | 340° |
| 2026-05-04 01:02 | 38.71381 | -78.06043 | 12971 ft | 342 kts | 340° |
| 2026-05-04 01:02 | 38.73585 | -78.07059 | 12971 ft | 342 kts | 340° |
| 2026-05-04 01:02 | 38.75824 | -78.08093 | 12972 ft | 342 kts | 340° |
| 2026-05-04 01:03 | 38.78055 | -78.09113 | 13204 ft | 335 kts | 337° |
| 2026-05-04 01:03 | 38.80173 | -78.10083 | 12987 ft | 323 kts | 336° |
| 2026-05-04 01:03 | 38.82288 | -78.11069 | 12973 ft | 324 kts | 336° |
| 2026-05-04 01:03 | 38.84409 | -78.12055 | 12981 ft | 324 kts | 336° |
| 2026-05-04 01:04 | 38.86494 | -78.13021 | 12979 ft | 322 kts | 336° |
| 2026-05-04 01:04 | 38.88605 | -78.14006 | 12992 ft | 325 kts | 336° |
| 2026-05-04 01:04 | 38.90734 | -78.14994 | 12993 ft | 324 kts | 336° |
| 2026-05-04 01:04 | 38.92853 | -78.15975 | 12987 ft | 324 kts | 336° |
| 2026-05-04 01:05 | 38.94974 | -78.16959 | 12984 ft | 324 kts | 336° |
| 2026-05-04 01:05 | 38.97095 | -78.17947 | 12990 ft | 324 kts | 336° |
| 2026-05-04 01:05 | 38.99221 | -78.18933 | 12997 ft | 326 kts | 336° |
| 2026-05-04 01:05 | 39.01351 | -78.19919 | 12994 ft | 326 kts | 336° |
| 2026-05-04 01:06 | 39.03486 | -78.20909 | 13001 ft | 326 kts | 336° |
| 2026-05-04 01:06 | 39.05592 | -78.21886 | 12996 ft | 326 kts | 336° |
| 2026-05-04 01:06 | 39.07724 | -78.22881 | 12994 ft | 326 kts | 336° |
| 2026-05-04 01:06 | 39.09859 | -78.23876 | 12992 ft | 326 kts | 336° |
| 2026-05-04 01:07 | 39.11992 | -78.24870 | 12997 ft | 326 kts | 336° |
| 2026-05-04 01:07 | 39.14124 | -78.25866 | 12996 ft | 326 kts | 336° |
| 2026-05-04 01:07 | 39.16243 | -78.26854 | 12997 ft | 326 kts | 336° |
| 2026-05-04 01:07 | 39.18484 | -78.27468 | 12401 ft | 341 kts | 356° |
| 2026-05-04 01:08 | 39.20746 | -78.26717 | 12035 ft | 345 kts | 23° |
| 2026-05-04 01:08 | 39.22585 | -78.24780 | 11488 ft | 350 kts | 49° |
| 2026-05-04 01:08 | 39.23613 | -78.22038 | 10903 ft | 332 kts | 77° |
| 2026-05-04 01:08 | 39.23844 | -78.19176 | 10349 ft | 314 kts | 84° |
| 2026-05-04 01:09 | 39.24260 | -78.16432 | 9802 ft | 310 kts | 73° |
| 2026-05-04 01:09 | 39.24942 | -78.13812 | 9219 ft | 306 kts | 68° |
| 2026-05-04 01:09 | 39.25727 | -78.11280 | 8655 ft | 302 kts | 66° |
| 2026-05-04 01:09 | 39.26555 | -78.08809 | 8094 ft | 299 kts | 65° |
| 2026-05-04 01:10 | 39.27395 | -78.06396 | 7552 ft | 295 kts | 64° |
| 2026-05-04 01:10 | 39.28234 | -78.04030 | 7052 ft | 292 kts | 64° |
| 2026-05-04 01:10 | 39.29082 | -78.01662 | 6534 ft | 289 kts | 64° |
| 2026-05-04 01:10 | 39.29923 | -77.99324 | 6009 ft | 287 kts | 64° |
| 2026-05-04 01:11 | 39.30762 | -77.96999 | 5479 ft | 285 kts | 64° |
| 2026-05-04 01:11 | 39.31596 | -77.94686 | 4965 ft | 282 kts | 64° |
| 2026-05-04 01:11 | 39.32421 | -77.92398 | 4435 ft | 280 kts | 64° |
| 2026-05-04 01:11 | 39.33239 | -77.90130 | 3934 ft | 277 kts | 64° |
| 2026-05-04 01:12 | 39.34037 | -77.87915 | 3557 ft | 274 kts | 63° |
| 2026-05-04 01:12 | 39.34844 | -77.85674 | 3482 ft | 275 kts | 64° |
| 2026-05-04 01:12 | 39.35652 | -77.83428 | 3472 ft | 277 kts | 64° |
| 2026-05-04 01:12 | 39.36461 | -77.81179 | 3477 ft | 276 kts | 64° |
| 2026-05-04 01:13 | 39.37268 | -77.78929 | 3484 ft | 276 kts | 64° |
| 2026-05-04 01:13 | 39.37927 | -77.76615 | 3487 ft | 276 kts | 81° |
| 2026-05-04 01:13 | 39.37826 | -77.74142 | 3499 ft | 277 kts | 102° |
| 2026-05-04 01:13 | 39.37285 | -77.71755 | 3489 ft | 277 kts | 109° |
| 2026-05-04 01:14 | 39.36662 | -77.69402 | 3465 ft | 277 kts | 110° |
| 2026-05-04 01:14 | 39.36055 | -77.67079 | 3500 ft | 277 kts | 109° |
| 2026-05-04 01:14 | 39.35454 | -77.64721 | 3504 ft | 276 kts | 109° |
| 2026-05-04 01:14 | 39.34874 | -77.62383 | 3505 ft | 277 kts | 108° |
| 2026-05-04 01:15 | 39.34298 | -77.60004 | 3502 ft | 277 kts | 108° |
| 2026-05-04 01:15 | 39.33725 | -77.57636 | 3505 ft | 275 kts | 108° |
| 2026-05-04 01:15 | 39.33151 | -77.55266 | 3408 ft | 278 kts | 108° |
| 2026-05-04 01:15 | 39.32576 | -77.52904 | 3052 ft | 274 kts | 108° |
| 2026-05-04 01:16 | 39.32006 | -77.50561 | 2989 ft | 275 kts | 108° |
| 2026-05-04 01:16 | 39.31433 | -77.48205 | 2997 ft | 275 kts | 108° |
| 2026-05-04 01:16 | 39.30871 | -77.45909 | 3007 ft | 275 kts | 108° |
| 2026-05-04 01:16 | 39.30323 | -77.43670 | 2998 ft | 241 kts | 109° |
| 2026-05-04 01:17 | 39.29827 | -77.41658 | 2998 ft | 233 kts | 109° |
| 2026-05-04 01:17 | 39.29334 | -77.39668 | 3012 ft | 233 kts | 109° |
| 2026-05-04 01:17 | 39.28832 | -77.37683 | 3007 ft | 232 kts | 111° |
| 2026-05-04 01:17 | 39.28198 | -77.35927 | 2999 ft | 201 kts | 122° |
| 2026-05-04 01:18 | 39.27447 | -77.34469 | 2695 ft | 194 kts | 128° |
| 2026-05-04 01:18 | 39.26676 | -77.33154 | 2288 ft | 174 kts | 130° |
| 2026-05-04 01:18 | 39.26004 | -77.32034 | 2307 ft | 149 kts | 131° |
| 2026-05-04 01:18 | 39.25393 | -77.31013 | 2278 ft | 142 kts | 131° |
| 2026-05-04 01:19 | 39.24791 | -77.30009 | 2246 ft | 141 kts | 131° |
| 2026-05-04 01:19 | 39.24188 | -77.29005 | 2232 ft | 142 kts | 131° |
| 2026-05-04 01:19 | 39.23588 | -77.28003 | 2217 ft | 142 kts | 131° |
| 2026-05-04 01:19 | 39.22987 | -77.26999 | 2219 ft | 142 kts | 131° |
| 2026-05-04 01:20 | 39.22386 | -77.25990 | 2215 ft | 141 kts | 131° |
| 2026-05-04 01:20 | 39.21790 | -77.24988 | 2160 ft | 135 kts | 130° |
| 2026-05-04 01:20 | 39.21262 | -77.24087 | 1910 ft | 126 kts | 131° |
| 2026-05-04 01:20 | 39.20736 | -77.23171 | 1753 ft | 128 kts | 130° |
| 2026-05-04 01:21 | 39.20177 | -77.22231 | 1609 ft | 134 kts | 130° |
| 2026-05-04 01:21 | 39.19612 | -77.21279 | 1389 ft | 132 kts | 130° |
| 2026-05-04 01:21 | 39.19069 | -77.20382 | 1160 ft | 123 kts | 127° |
| 2026-05-04 01:21 | 39.18569 | -77.19522 | 984 ft | 119 kts | 128° |
| 2026-05-04 01:22 | 39.18073 | -77.18690 | 817 ft | 118 kts | 127° |
| 2026-05-04 01:22 | 39.17576 | -77.17847 | 667 ft | 117 kts | 127° |
| 2026-05-04 01:22 | 39.17108 | -77.17057 | 509 ft | 106 kts | 127° |
| 2026-05-04 01:22 | 39.16814 | -77.16567 | 519 ft | 32 kts | 128° |
| 2026-05-04 01:23 | 39.16738 | -77.16441 | 521 ft | 5 kts | 128° |
| 2026-05-04 01:23 | 39.16716 | -77.16396 | 523 ft | 5 kts | 108° |
| 2026-05-04 01:23 | 39.16714 | -77.16369 | 523 ft | 2 kts | 85° |
| 2026-05-04 01:23 | 39.16716 | -77.16351 | 524 ft | 6 kts | 83° |
| 2026-05-04 01:24 | 39.16744 | -77.16316 | 524 ft | 9 kts | 326° |
| 2026-05-04 01:24 | 39.16786 | -77.16339 | 522 ft | 8 kts | 21° |
| 2026-05-04 01:24 | 39.16832 | -77.16309 | 518 ft | 7 kts | 26° |
| 2026-05-04 01:24 | 39.16859 | -77.16322 | 516 ft | 2 kts | 308° |
| 2026-05-04 01:25 | 39.16860 | -77.16324 | 516 ft | 0 kts | 308° |
| 2026-05-04 01:28 | 39.16881 | -77.16358 | 515 ft | 0 kts | 308° |